sensor_id;sensor_type;location;lat;lon;timestamp;P1;durP1;ratioP1;P2;durP2;ratioP2
72205;SDS011;60111;48.286;7.812;2023-06-14T00:00:13;9.77;;;4.60;;
72205;SDS011;60111;48.286;7.812;2023-06-14T00:02:47;5.60;;;4.40;;
72205;SDS011;60111;48.286;7.812;2023-06-14T00:05:19;5.55;;;4.40;;
72205;SDS011;60111;48.286;7.812;2023-06-14T00:07:54;6.37;;;4.30;;
72205;SDS011;60111;48.286;7.812;2023-06-14T00:10:26;6.20;;;4.65;;
72205;SDS011;60111;48.286;7.812;2023-06-14T00:15:33;6.80;;;3.80;;
72205;SDS011;60111;48.286;7.812;2023-06-14T00:18:06;6.03;;;4.37;;
72205;SDS011;60111;48.286;7.812;2023-06-14T00:20:40;7.22;;;4.50;;
72205;SDS011;60111;48.286;7.812;2023-06-14T00:23:13;5.42;;;4.03;;
72205;SDS011;60111;48.286;7.812;2023-06-14T00:25:46;4.85;;;4.40;;
72205;SDS011;60111;48.286;7.812;2023-06-14T00:28:19;5.28;;;4.17;;
72205;SDS011;60111;48.286;7.812;2023-06-14T00:30:51;4.60;;;3.77;;
72205;SDS011;60111;48.286;7.812;2023-06-14T00:33:24;8.65;;;3.85;;
72205;SDS011;60111;48.286;7.812;2023-06-14T00:35:56;5.50;;;4.15;;
72205;SDS011;60111;48.286;7.812;2023-06-14T00:38:29;5.20;;;4.12;;
72205;SDS011;60111;48.286;7.812;2023-06-14T00:41:02;7.75;;;4.22;;
72205;SDS011;60111;48.286;7.812;2023-06-14T00:43:34;7.10;;;4.03;;
72205;SDS011;60111;48.286;7.812;2023-06-14T00:46:07;5.47;;;4.05;;
72205;SDS011;60111;48.286;7.812;2023-06-14T00:48:39;5.87;;;4.65;;
72205;SDS011;60111;48.286;7.812;2023-06-14T00:51:13;4.83;;;4.17;;
72205;SDS011;60111;48.286;7.812;2023-06-14T00:53:46;4.90;;;4.05;;
72205;SDS011;60111;48.286;7.812;2023-06-14T00:56:18;5.72;;;4.25;;
72205;SDS011;60111;48.286;7.812;2023-06-14T00:58:52;5.85;;;4.20;;
72205;SDS011;60111;48.286;7.812;2023-06-14T01:01:26;4.30;;;3.90;;
72205;SDS011;60111;48.286;7.812;2023-06-14T01:03:59;4.47;;;4.00;;
72205;SDS011;60111;48.286;7.812;2023-06-14T01:07:23;4.42;;;3.67;;
72205;SDS011;60111;48.286;7.812;2023-06-14T01:09:28;5.90;;;4.20;;
72205;SDS011;60111;48.286;7.812;2023-06-14T01:12:17;5.15;;;3.98;;
72205;SDS011;60111;48.286;7.812;2023-06-14T01:15:09;4.67;;;4.10;;
72205;SDS011;60111;48.286;7.812;2023-06-14T01:17:42;4.92;;;4.15;;
72205;SDS011;60111;48.286;7.812;2023-06-14T01:20:19;5.33;;;4.07;;
72205;SDS011;60111;48.286;7.812;2023-06-14T01:22:53;5.33;;;4.10;;
72205;SDS011;60111;48.286;7.812;2023-06-14T01:25:26;6.47;;;4.05;;
72205;SDS011;60111;48.286;7.812;2023-06-14T01:28:00;5.55;;;4.15;;
72205;SDS011;60111;48.286;7.812;2023-06-14T01:30:40;9.88;;;4.60;;
72205;SDS011;60111;48.286;7.812;2023-06-14T01:33:15;6.28;;;3.80;;
72205;SDS011;60111;48.286;7.812;2023-06-14T01:35:51;4.70;;;4.03;;
72205;SDS011;60111;48.286;7.812;2023-06-14T01:40:57;6.12;;;4.20;;
72205;SDS011;60111;48.286;7.812;2023-06-14T01:43:31;5.78;;;4.05;;
72205;SDS011;60111;48.286;7.812;2023-06-14T01:46:06;7.60;;;3.70;;
72205;SDS011;60111;48.286;7.812;2023-06-14T01:48:40;5.80;;;4.17;;
72205;SDS011;60111;48.286;7.812;2023-06-14T01:51:13;7.22;;;4.28;;
72205;SDS011;60111;48.286;7.812;2023-06-14T01:53:46;4.62;;;4.10;;
72205;SDS011;60111;48.286;7.812;2023-06-14T01:56:19;5.00;;;4.20;;
72205;SDS011;60111;48.286;7.812;2023-06-14T01:58:52;7.50;;;4.53;;
72205;SDS011;60111;48.286;7.812;2023-06-14T02:01:25;6.58;;;4.55;;
72205;SDS011;60111;48.286;7.812;2023-06-14T02:03:57;5.05;;;4.47;;
72205;SDS011;60111;48.286;7.812;2023-06-14T02:06:30;6.78;;;4.80;;
72205;SDS011;60111;48.286;7.812;2023-06-14T02:09:04;6.43;;;4.43;;
72205;SDS011;60111;48.286;7.812;2023-06-14T02:11:36;9.10;;;4.87;;
72205;SDS011;60111;48.286;7.812;2023-06-14T02:14:09;6.53;;;4.90;;
72205;SDS011;60111;48.286;7.812;2023-06-14T02:16:42;5.17;;;4.57;;
72205;SDS011;60111;48.286;7.812;2023-06-14T02:19:19;5.87;;;4.58;;
72205;SDS011;60111;48.286;7.812;2023-06-14T02:21:52;6.70;;;4.45;;
72205;SDS011;60111;48.286;7.812;2023-06-14T02:24:25;5.30;;;4.40;;
72205;SDS011;60111;48.286;7.812;2023-06-14T02:26:57;5.55;;;4.20;;
72205;SDS011;60111;48.286;7.812;2023-06-14T02:29:30;6.22;;;4.40;;
72205;SDS011;60111;48.286;7.812;2023-06-14T02:32:04;5.70;;;4.50;;
72205;SDS011;60111;48.286;7.812;2023-06-14T02:34:38;5.37;;;4.10;;
72205;SDS011;60111;48.286;7.812;2023-06-14T02:37:12;7.87;;;4.27;;
72205;SDS011;60111;48.286;7.812;2023-06-14T02:39:44;4.80;;;4.03;;
72205;SDS011;60111;48.286;7.812;2023-06-14T02:42:17;5.60;;;4.72;;
72205;SDS011;60111;48.286;7.812;2023-06-14T02:44:49;4.30;;;3.90;;
72205;SDS011;60111;48.286;7.812;2023-06-14T02:47:22;6.90;;;4.67;;
72205;SDS011;60111;48.286;7.812;2023-06-14T02:49:55;5.45;;;4.95;;
72205;SDS011;60111;48.286;7.812;2023-06-14T02:52:28;6.47;;;4.65;;
72205;SDS011;60111;48.286;7.812;2023-06-14T02:55:00;7.00;;;4.70;;
72205;SDS011;60111;48.286;7.812;2023-06-14T02:57:33;7.75;;;4.62;;
72205;SDS011;60111;48.286;7.812;2023-06-14T03:00:06;6.20;;;4.60;;
72205;SDS011;60111;48.286;7.812;2023-06-14T03:02:43;4.80;;;4.30;;
72205;SDS011;60111;48.286;7.812;2023-06-14T03:05:17;6.15;;;4.85;;
72205;SDS011;60111;48.286;7.812;2023-06-14T03:07:51;6.35;;;4.70;;
72205;SDS011;60111;48.286;7.812;2023-06-14T03:10:24;5.03;;;4.50;;
72205;SDS011;60111;48.286;7.812;2023-06-14T03:15:32;8.03;;;4.50;;
72205;SDS011;60111;48.286;7.812;2023-06-14T03:18:07;7.63;;;5.03;;
72205;SDS011;60111;48.286;7.812;2023-06-14T03:20:43;8.10;;;5.22;;
72205;SDS011;60111;48.286;7.812;2023-06-14T03:23:16;7.90;;;5.22;;
72205;SDS011;60111;48.286;7.812;2023-06-14T03:25:49;8.10;;;4.87;;
72205;SDS011;60111;48.286;7.812;2023-06-14T03:28:22;5.97;;;4.55;;
72205;SDS011;60111;48.286;7.812;2023-06-14T03:30:54;10.40;;;4.90;;
72205;SDS011;60111;48.286;7.812;2023-06-14T03:33:27;6.78;;;5.03;;
72205;SDS011;60111;48.286;7.812;2023-06-14T03:36:00;6.97;;;4.78;;
72205;SDS011;60111;48.286;7.812;2023-06-14T03:38:33;6.97;;;5.10;;
72205;SDS011;60111;48.286;7.812;2023-06-14T03:41:06;6.80;;;4.58;;
72205;SDS011;60111;48.286;7.812;2023-06-14T03:43:38;5.40;;;4.70;;
72205;SDS011;60111;48.286;7.812;2023-06-14T03:46:12;6.70;;;4.67;;
72205;SDS011;60111;48.286;7.812;2023-06-14T03:48:45;5.10;;;4.45;;
72205;SDS011;60111;48.286;7.812;2023-06-14T03:51:17;6.00;;;4.70;;
72205;SDS011;60111;48.286;7.812;2023-06-14T03:53:50;5.97;;;4.70;;
72205;SDS011;60111;48.286;7.812;2023-06-14T03:56:22;5.97;;;4.93;;
72205;SDS011;60111;48.286;7.812;2023-06-14T03:58:56;7.87;;;5.80;;
72205;SDS011;60111;48.286;7.812;2023-06-14T04:01:28;6.78;;;5.22;;
72205;SDS011;60111;48.286;7.812;2023-06-14T04:04:02;8.17;;;5.40;;
72205;SDS011;60111;48.286;7.812;2023-06-14T04:06:35;8.90;;;5.50;;
72205;SDS011;60111;48.286;7.812;2023-06-14T04:09:08;8.43;;;4.72;;
72205;SDS011;60111;48.286;7.812;2023-06-14T04:11:40;6.20;;;5.28;;
72205;SDS011;60111;48.286;7.812;2023-06-14T04:14:13;10.80;;;5.58;;
72205;SDS011;60111;48.286;7.812;2023-06-14T04:16:46;6.58;;;5.15;;
72205;SDS011;60111;48.286;7.812;2023-06-14T04:19:19;8.33;;;5.70;;
72205;SDS011;60111;48.286;7.812;2023-06-14T04:21:51;9.45;;;5.37;;
72205;SDS011;60111;48.286;7.812;2023-06-14T04:24:24;7.40;;;5.72;;
72205;SDS011;60111;48.286;7.812;2023-06-14T04:26:58;6.45;;;5.37;;
72205;SDS011;60111;48.286;7.812;2023-06-14T04:29:33;8.28;;;5.53;;
72205;SDS011;60111;48.286;7.812;2023-06-14T04:32:07;8.63;;;5.45;;
72205;SDS011;60111;48.286;7.812;2023-06-14T04:34:41;8.03;;;5.65;;
72205;SDS011;60111;48.286;7.812;2023-06-14T04:37:13;7.90;;;5.40;;
72205;SDS011;60111;48.286;7.812;2023-06-14T04:39:46;7.58;;;5.55;;
72205;SDS011;60111;48.286;7.812;2023-06-14T04:42:20;9.15;;;5.62;;
72205;SDS011;60111;48.286;7.812;2023-06-14T04:44:58;6.10;;;5.30;;
72205;SDS011;60111;48.286;7.812;2023-06-14T04:47:31;8.73;;;5.60;;
72205;SDS011;60111;48.286;7.812;2023-06-14T04:50:05;7.23;;;5.47;;
72205;SDS011;60111;48.286;7.812;2023-06-14T04:52:38;8.63;;;5.70;;
72205;SDS011;60111;48.286;7.812;2023-06-14T04:55:11;6.93;;;5.90;;
72205;SDS011;60111;48.286;7.812;2023-06-14T04:57:44;7.47;;;5.65;;
72205;SDS011;60111;48.286;7.812;2023-06-14T05:00:17;6.73;;;5.27;;
72205;SDS011;60111;48.286;7.812;2023-06-14T05:02:50;9.65;;;5.42;;
72205;SDS011;60111;48.286;7.812;2023-06-14T05:05:24;6.85;;;5.40;;
72205;SDS011;60111;48.286;7.812;2023-06-14T05:07:56;11.30;;;5.58;;
72205;SDS011;60111;48.286;7.812;2023-06-14T05:10:30;9.80;;;5.78;;
72205;SDS011;60111;48.286;7.812;2023-06-14T05:13:02;10.08;;;4.83;;
72205;SDS011;60111;48.286;7.812;2023-06-14T05:15:35;10.30;;;5.80;;
72205;SDS011;60111;48.286;7.812;2023-06-14T05:18:07;8.65;;;5.53;;
72205;SDS011;60111;48.286;7.812;2023-06-14T05:20:40;8.10;;;6.25;;
72205;SDS011;60111;48.286;7.812;2023-06-14T05:23:13;9.53;;;5.53;;
72205;SDS011;60111;48.286;7.812;2023-06-14T05:25:45;11.30;;;6.20;;
72205;SDS011;60111;48.286;7.812;2023-06-14T05:28:18;15.13;;;6.28;;
72205;SDS011;60111;48.286;7.812;2023-06-14T05:30:51;8.08;;;5.85;;
72205;SDS011;60111;48.286;7.812;2023-06-14T05:33:24;6.57;;;5.90;;
72205;SDS011;60111;48.286;7.812;2023-06-14T05:35:56;10.70;;;6.10;;
72205;SDS011;60111;48.286;7.812;2023-06-14T05:38:30;9.30;;;5.53;;
72205;SDS011;60111;48.286;7.812;2023-06-14T05:41:02;6.53;;;5.20;;
72205;SDS011;60111;48.286;7.812;2023-06-14T05:43:35;8.37;;;6.27;;
72205;SDS011;60111;48.286;7.812;2023-06-14T05:46:07;8.10;;;5.95;;
72205;SDS011;60111;48.286;7.812;2023-06-14T05:48:40;9.30;;;6.58;;
72205;SDS011;60111;48.286;7.812;2023-06-14T05:51:13;11.33;;;7.10;;
72205;SDS011;60111;48.286;7.812;2023-06-14T05:53:47;10.05;;;6.40;;
72205;SDS011;60111;48.286;7.812;2023-06-14T05:56:21;9.60;;;6.35;;
72205;SDS011;60111;48.286;7.812;2023-06-14T05:58:53;12.35;;;6.03;;
72205;SDS011;60111;48.286;7.812;2023-06-14T06:01:26;11.60;;;6.12;;
72205;SDS011;60111;48.286;7.812;2023-06-14T06:03:58;16.25;;;6.75;;
72205;SDS011;60111;48.286;7.812;2023-06-14T06:06:31;9.33;;;6.10;;
72205;SDS011;60111;48.286;7.812;2023-06-14T06:09:03;7.15;;;5.90;;
72205;SDS011;60111;48.286;7.812;2023-06-14T06:11:37;10.40;;;6.30;;
72205;SDS011;60111;48.286;7.812;2023-06-14T06:14:10;11.97;;;5.87;;
72205;SDS011;60111;48.286;7.812;2023-06-14T06:16:43;8.25;;;5.55;;
72205;SDS011;60111;48.286;7.812;2023-06-14T06:19:16;10.17;;;6.13;;
72205;SDS011;60111;48.286;7.812;2023-06-14T06:21:48;9.90;;;6.03;;
72205;SDS011;60111;48.286;7.812;2023-06-14T06:24:21;10.35;;;6.25;;
72205;SDS011;60111;48.286;7.812;2023-06-14T06:26:54;9.45;;;6.10;;
72205;SDS011;60111;48.286;7.812;2023-06-14T06:29:26;9.73;;;5.72;;
72205;SDS011;60111;48.286;7.812;2023-06-14T06:32:00;10.25;;;5.67;;
72205;SDS011;60111;48.286;7.812;2023-06-14T06:34:33;11.25;;;5.60;;
72205;SDS011;60111;48.286;7.812;2023-06-14T06:37:06;11.17;;;5.13;;
72205;SDS011;60111;48.286;7.812;2023-06-14T06:39:39;7.70;;;5.17;;
72205;SDS011;60111;48.286;7.812;2023-06-14T06:42:12;9.10;;;5.42;;
72205;SDS011;60111;48.286;7.812;2023-06-14T06:44:44;10.28;;;5.25;;
72205;SDS011;60111;48.286;7.812;2023-06-14T06:47:17;7.37;;;5.03;;
72205;SDS011;60111;48.286;7.812;2023-06-14T06:49:50;13.53;;;5.40;;
72205;SDS011;60111;48.286;7.812;2023-06-14T06:52:23;9.68;;;5.92;;
72205;SDS011;60111;48.286;7.812;2023-06-14T06:54:55;11.68;;;5.97;;
72205;SDS011;60111;48.286;7.812;2023-06-14T06:57:28;8.55;;;5.00;;
72205;SDS011;60111;48.286;7.812;2023-06-14T07:00:00;11.45;;;4.78;;
72205;SDS011;60111;48.286;7.812;2023-06-14T07:02:35;7.42;;;4.78;;
72205;SDS011;60111;48.286;7.812;2023-06-14T07:05:10;12.90;;;5.15;;
72205;SDS011;60111;48.286;7.812;2023-06-14T07:07:42;8.05;;;4.75;;
72205;SDS011;60111;48.286;7.812;2023-06-14T07:10:14;10.18;;;4.92;;
72205;SDS011;60111;48.286;7.812;2023-06-14T07:12:47;10.00;;;4.60;;
72205;SDS011;60111;48.286;7.812;2023-06-14T07:15:20;8.90;;;5.45;;
72205;SDS011;60111;48.286;7.812;2023-06-14T07:17:52;8.55;;;4.83;;
72205;SDS011;60111;48.286;7.812;2023-06-14T07:22:59;10.95;;;5.17;;
72205;SDS011;60111;48.286;7.812;2023-06-14T07:25:31;11.63;;;4.87;;
72205;SDS011;60111;48.286;7.812;2023-06-14T07:28:04;11.03;;;5.17;;
72205;SDS011;60111;48.286;7.812;2023-06-14T07:30:37;6.40;;;4.90;;
72205;SDS011;60111;48.286;7.812;2023-06-14T07:33:09;10.48;;;5.20;;
72205;SDS011;60111;48.286;7.812;2023-06-14T07:35:43;9.98;;;5.12;;
72205;SDS011;60111;48.286;7.812;2023-06-14T07:38:16;6.67;;;4.30;;
72205;SDS011;60111;48.286;7.812;2023-06-14T07:40:49;12.77;;;5.10;;
72205;SDS011;60111;48.286;7.812;2023-06-14T07:43:21;10.53;;;5.00;;
72205;SDS011;60111;48.286;7.812;2023-06-14T07:45:54;6.43;;;4.77;;
72205;SDS011;60111;48.286;7.812;2023-06-14T07:48:28;10.60;;;5.13;;
72205;SDS011;60111;48.286;7.812;2023-06-14T07:51:00;6.35;;;4.90;;
72205;SDS011;60111;48.286;7.812;2023-06-14T07:53:33;9.65;;;4.67;;
72205;SDS011;60111;48.286;7.812;2023-06-14T07:56:05;12.13;;;4.90;;
72205;SDS011;60111;48.286;7.812;2023-06-14T07:58:38;7.10;;;4.22;;
72205;SDS011;60111;48.286;7.812;2023-06-14T08:01:11;6.77;;;4.17;;
72205;SDS011;60111;48.286;7.812;2023-06-14T08:03:44;7.95;;;4.03;;
72205;SDS011;60111;48.286;7.812;2023-06-14T08:06:16;12.70;;;5.22;;
72205;SDS011;60111;48.286;7.812;2023-06-14T08:08:49;7.53;;;4.47;;
72205;SDS011;60111;48.286;7.812;2023-06-14T08:11:22;11.80;;;5.03;;
72205;SDS011;60111;48.286;7.812;2023-06-14T08:13:55;15.98;;;5.00;;
72205;SDS011;60111;48.286;7.812;2023-06-14T08:16:27;9.37;;;4.90;;
72205;SDS011;60111;48.286;7.812;2023-06-14T08:19:00;12.03;;;4.60;;
72205;SDS011;60111;48.286;7.812;2023-06-14T08:21:33;10.90;;;4.58;;
72205;SDS011;60111;48.286;7.812;2023-06-14T08:24:07;11.55;;;4.83;;
72205;SDS011;60111;48.286;7.812;2023-06-14T08:26:40;6.00;;;4.50;;
72205;SDS011;60111;48.286;7.812;2023-06-14T08:29:13;7.03;;;5.08;;
72205;SDS011;60111;48.286;7.812;2023-06-14T08:31:46;10.63;;;4.55;;
72205;SDS011;60111;48.286;7.812;2023-06-14T08:34:19;9.33;;;5.03;;
72205;SDS011;60111;48.286;7.812;2023-06-14T08:36:53;9.90;;;4.50;;
72205;SDS011;60111;48.286;7.812;2023-06-14T08:39:26;10.28;;;4.53;;
72205;SDS011;60111;48.286;7.812;2023-06-14T08:41:59;9.13;;;4.72;;
72205;SDS011;60111;48.286;7.812;2023-06-14T08:44:34;9.33;;;4.42;;
72205;SDS011;60111;48.286;7.812;2023-06-14T08:47:07;10.65;;;5.00;;
72205;SDS011;60111;48.286;7.812;2023-06-14T08:52:15;11.83;;;4.67;;
72205;SDS011;60111;48.286;7.812;2023-06-14T08:54:51;8.83;;;4.83;;
72205;SDS011;60111;48.286;7.812;2023-06-14T08:57:24;6.45;;;4.78;;
72205;SDS011;60111;48.286;7.812;2023-06-14T09:00:00;8.53;;;4.45;;
72205;SDS011;60111;48.286;7.812;2023-06-14T09:02:36;6.62;;;4.28;;
72205;SDS011;60111;48.286;7.812;2023-06-14T09:05:11;12.05;;;4.25;;
72205;SDS011;60111;48.286;7.812;2023-06-14T09:07:45;12.10;;;4.33;;
72205;SDS011;60111;48.286;7.812;2023-06-14T09:12:52;11.95;;;4.25;;
72205;SDS011;60111;48.286;7.812;2023-06-14T09:15:25;13.22;;;4.60;;
72205;SDS011;60111;48.286;7.812;2023-06-14T09:17:58;11.77;;;4.37;;
72205;SDS011;60111;48.286;7.812;2023-06-14T09:20:32;5.45;;;3.67;;
72205;SDS011;60111;48.286;7.812;2023-06-14T09:23:05;8.13;;;4.10;;
72205;SDS011;60111;48.286;7.812;2023-06-14T09:25:45;8.97;;;4.13;;
72205;SDS011;60111;48.286;7.812;2023-06-14T09:28:18;7.17;;;4.03;;
72205;SDS011;60111;48.286;7.812;2023-06-14T09:30:52;7.40;;;4.30;;
72205;SDS011;60111;48.286;7.812;2023-06-14T09:33:25;7.53;;;4.37;;
72205;SDS011;60111;48.286;7.812;2023-06-14T09:36:00;9.10;;;4.30;;
72205;SDS011;60111;48.286;7.812;2023-06-14T09:38:34;7.83;;;4.20;;
72205;SDS011;60111;48.286;7.812;2023-06-14T09:41:06;10.25;;;4.53;;
72205;SDS011;60111;48.286;7.812;2023-06-14T09:43:39;10.68;;;4.40;;
72205;SDS011;60111;48.286;7.812;2023-06-14T09:46:12;6.40;;;4.13;;
72205;SDS011;60111;48.286;7.812;2023-06-14T09:48:45;9.20;;;4.07;;
72205;SDS011;60111;48.286;7.812;2023-06-14T09:51:17;6.33;;;4.10;;
72205;SDS011;60111;48.286;7.812;2023-06-14T09:53:52;6.25;;;3.80;;
72205;SDS011;60111;48.286;7.812;2023-06-14T09:56:28;9.57;;;4.77;;
72205;SDS011;60111;48.286;7.812;2023-06-14T09:59:02;9.03;;;4.33;;
72205;SDS011;60111;48.286;7.812;2023-06-14T10:01:41;8.23;;;4.60;;
72205;SDS011;60111;48.286;7.812;2023-06-14T10:04:14;11.23;;;4.80;;
72205;SDS011;60111;48.286;7.812;2023-06-14T10:06:49;7.62;;;3.80;;
72205;SDS011;60111;48.286;7.812;2023-06-14T10:09:24;5.35;;;4.17;;
72205;SDS011;60111;48.286;7.812;2023-06-14T10:11:57;8.25;;;4.20;;
72205;SDS011;60111;48.286;7.812;2023-06-14T10:14:30;7.35;;;4.47;;
72205;SDS011;60111;48.286;7.812;2023-06-14T10:17:09;6.62;;;3.70;;
72205;SDS011;60111;48.286;7.812;2023-06-14T10:19:50;6.55;;;4.00;;
72205;SDS011;60111;48.286;7.812;2023-06-14T10:22:29;8.33;;;3.87;;
72205;SDS011;60111;48.286;7.812;2023-06-14T10:25:06;7.58;;;3.98;;
72205;SDS011;60111;48.286;7.812;2023-06-14T10:33:48;12.28;;;3.77;;
72205;SDS011;60111;48.286;7.812;2023-06-14T10:36:30;9.10;;;3.98;;
72205;SDS011;60111;48.286;7.812;2023-06-14T10:39:05;9.83;;;4.08;;
72205;SDS011;60111;48.286;7.812;2023-06-14T10:47:06;7.10;;;4.12;;
72205;SDS011;60111;48.286;7.812;2023-06-14T10:49:57;6.73;;;3.20;;
72205;SDS011;60111;48.286;7.812;2023-06-14T10:52:41;5.25;;;3.62;;
72205;SDS011;60111;48.286;7.812;2023-06-14T10:55:15;7.40;;;3.40;;
72205;SDS011;60111;48.286;7.812;2023-06-14T11:00:27;5.20;;;3.80;;
72205;SDS011;60111;48.286;7.812;2023-06-14T11:05:54;3.80;;;3.40;;
72205;SDS011;60111;48.286;7.812;2023-06-14T11:11:09;5.55;;;3.85;;
72205;SDS011;60111;48.286;7.812;2023-06-14T11:13:44;3.85;;;3.45;;
72205;SDS011;60111;48.286;7.812;2023-06-14T11:16:17;6.87;;;3.73;;
72205;SDS011;60111;48.286;7.812;2023-06-14T11:18:50;7.40;;;3.30;;
72205;SDS011;60111;48.286;7.812;2023-06-14T11:21:23;8.73;;;3.97;;
72205;SDS011;60111;48.286;7.812;2023-06-14T11:23:58;7.05;;;3.50;;
72205;SDS011;60111;48.286;7.812;2023-06-14T11:26:31;7.83;;;3.50;;
72205;SDS011;60111;48.286;7.812;2023-06-14T11:29:07;5.00;;;3.55;;
72205;SDS011;60111;48.286;7.812;2023-06-14T11:31:43;7.90;;;3.58;;
72205;SDS011;60111;48.286;7.812;2023-06-14T11:34:16;8.15;;;3.35;;
72205;SDS011;60111;48.286;7.812;2023-06-14T11:36:50;6.27;;;3.60;;
72205;SDS011;60111;48.286;7.812;2023-06-14T11:39:26;9.98;;;3.62;;
72205;SDS011;60111;48.286;7.812;2023-06-14T11:41:58;5.00;;;3.30;;
72205;SDS011;60111;48.286;7.812;2023-06-14T11:47:04;10.00;;;3.40;;
72205;SDS011;60111;48.286;7.812;2023-06-14T11:49:37;6.97;;;3.35;;
72205;SDS011;60111;48.286;7.812;2023-06-14T11:52:10;8.70;;;3.35;;
72205;SDS011;60111;48.286;7.812;2023-06-14T11:54:42;11.95;;;3.50;;
72205;SDS011;60111;48.286;7.812;2023-06-14T11:57:15;8.40;;;3.62;;
72205;SDS011;60111;48.286;7.812;2023-06-14T11:59:51;10.27;;;3.40;;
72205;SDS011;60111;48.286;7.812;2023-06-14T12:02:24;8.60;;;3.60;;
72205;SDS011;60111;48.286;7.812;2023-06-14T12:05:03;7.15;;;3.22;;
72205;SDS011;60111;48.286;7.812;2023-06-14T12:07:34;4.78;;;3.50;;
72205;SDS011;60111;48.286;7.812;2023-06-14T12:10:10;7.95;;;3.37;;
72205;SDS011;60111;48.286;7.812;2023-06-14T12:12:43;12.05;;;3.90;;
72205;SDS011;60111;48.286;7.812;2023-06-14T12:15:16;12.18;;;3.70;;
72205;SDS011;60111;48.286;7.812;2023-06-14T12:17:49;7.10;;;3.53;;
72205;SDS011;60111;48.286;7.812;2023-06-14T12:20:28;8.23;;;3.52;;
72205;SDS011;60111;48.286;7.812;2023-06-14T12:23:06;5.47;;;3.35;;
72205;SDS011;60111;48.286;7.812;2023-06-14T12:25:36;4.30;;;3.20;;
72205;SDS011;60111;48.286;7.812;2023-06-14T12:28:11;13.65;;;3.98;;
72205;SDS011;60111;48.286;7.812;2023-06-14T12:30:43;10.08;;;3.72;;
72205;SDS011;60111;48.286;7.812;2023-06-14T12:33:16;15.30;;;4.75;;
72205;SDS011;60111;48.286;7.812;2023-06-14T12:35:49;10.00;;;4.20;;
72205;SDS011;60111;48.286;7.812;2023-06-14T12:38:23;9.60;;;3.50;;
72205;SDS011;60111;48.286;7.812;2023-06-14T12:40:56;9.57;;;3.97;;
72205;SDS011;60111;48.286;7.812;2023-06-14T12:43:28;3.87;;;3.45;;
72205;SDS011;60111;48.286;7.812;2023-06-14T12:46:01;7.72;;;3.62;;
72205;SDS011;60111;48.286;7.812;2023-06-14T12:48:34;7.00;;;3.37;;
72205;SDS011;60111;48.286;7.812;2023-06-14T12:51:06;6.08;;;3.40;;
72205;SDS011;60111;48.286;7.812;2023-06-14T12:53:39;5.17;;;3.37;;
72205;SDS011;60111;48.286;7.812;2023-06-14T12:56:11;8.35;;;3.10;;
72205;SDS011;60111;48.286;7.812;2023-06-14T12:58:44;7.50;;;3.60;;
72205;SDS011;60111;48.286;7.812;2023-06-14T13:01:16;9.28;;;3.20;;
72205;SDS011;60111;48.286;7.812;2023-06-14T13:03:49;4.67;;;3.63;;
72205;SDS011;60111;48.286;7.812;2023-06-14T13:06:23;10.68;;;3.50;;
72205;SDS011;60111;48.286;7.812;2023-06-14T13:08:56;8.70;;;3.55;;
72205;SDS011;60111;48.286;7.812;2023-06-14T13:11:29;8.03;;;3.40;;
72205;SDS011;60111;48.286;7.812;2023-06-14T13:14:02;10.40;;;3.47;;
72205;SDS011;60111;48.286;7.812;2023-06-14T13:16:35;5.93;;;3.00;;
72205;SDS011;60111;48.286;7.812;2023-06-14T13:19:07;7.17;;;3.30;;
72205;SDS011;60111;48.286;7.812;2023-06-14T13:21:40;6.37;;;3.33;;
72205;SDS011;60111;48.286;7.812;2023-06-14T13:24:12;6.65;;;3.50;;
72205;SDS011;60111;48.286;7.812;2023-06-14T13:26:45;7.67;;;3.47;;
72205;SDS011;60111;48.286;7.812;2023-06-14T13:29:18;10.32;;;3.42;;
72205;SDS011;60111;48.286;7.812;2023-06-14T13:31:51;9.05;;;3.60;;
72205;SDS011;60111;48.286;7.812;2023-06-14T13:34:31;6.55;;;3.27;;
72205;SDS011;60111;48.286;7.812;2023-06-14T13:37:04;3.80;;;3.07;;
72205;SDS011;60111;48.286;7.812;2023-06-14T13:39:37;11.40;;;3.93;;
72205;SDS011;60111;48.286;7.812;2023-06-14T13:42:10;8.68;;;3.33;;
72205;SDS011;60111;48.286;7.812;2023-06-14T13:44:43;3.58;;;3.27;;
72205;SDS011;60111;48.286;7.812;2023-06-14T13:47:15;8.65;;;3.22;;
72205;SDS011;60111;48.286;7.812;2023-06-14T13:49:48;6.37;;;3.22;;
72205;SDS011;60111;48.286;7.812;2023-06-14T13:52:21;6.83;;;3.75;;
72205;SDS011;60111;48.286;7.812;2023-06-14T13:54:54;5.75;;;3.60;;
72205;SDS011;60111;48.286;7.812;2023-06-14T13:57:26;6.80;;;3.33;;
72205;SDS011;60111;48.286;7.812;2023-06-14T13:59:59;8.58;;;3.62;;
72205;SDS011;60111;48.286;7.812;2023-06-14T14:02:34;7.30;;;3.55;;
72205;SDS011;60111;48.286;7.812;2023-06-14T14:05:07;4.37;;;3.33;;
72205;SDS011;60111;48.286;7.812;2023-06-14T14:07:40;10.40;;;3.55;;
72205;SDS011;60111;48.286;7.812;2023-06-14T14:10:13;7.43;;;3.57;;
72205;SDS011;60111;48.286;7.812;2023-06-14T14:12:46;9.75;;;3.58;;
72205;SDS011;60111;48.286;7.812;2023-06-14T14:15:18;4.93;;;3.37;;
72205;SDS011;60111;48.286;7.812;2023-06-14T14:17:51;6.87;;;3.50;;
72205;SDS011;60111;48.286;7.812;2023-06-14T14:20:25;9.25;;;3.70;;
72205;SDS011;60111;48.286;7.812;2023-06-14T14:22:57;8.00;;;3.55;;
72205;SDS011;60111;48.286;7.812;2023-06-14T14:25:30;6.93;;;3.90;;
72205;SDS011;60111;48.286;7.812;2023-06-14T14:28:03;13.05;;;3.45;;
72205;SDS011;60111;48.286;7.812;2023-06-14T14:30:36;9.98;;;3.52;;
72205;SDS011;60111;48.286;7.812;2023-06-14T14:33:10;7.23;;;3.37;;
72205;SDS011;60111;48.286;7.812;2023-06-14T14:35:45;8.55;;;3.20;;
72205;SDS011;60111;48.286;7.812;2023-06-14T14:38:18;6.65;;;3.35;;
72205;SDS011;60111;48.286;7.812;2023-06-14T14:40:51;4.25;;;3.20;;
72205;SDS011;60111;48.286;7.812;2023-06-14T14:43:24;4.77;;;3.33;;
72205;SDS011;60111;48.286;7.812;2023-06-14T14:45:57;4.73;;;3.37;;
72205;SDS011;60111;48.286;7.812;2023-06-14T14:48:30;10.90;;;3.55;;
72205;SDS011;60111;48.286;7.812;2023-06-14T14:51:02;8.53;;;3.70;;
72205;SDS011;60111;48.286;7.812;2023-06-14T14:53:35;6.37;;;3.55;;
72205;SDS011;60111;48.286;7.812;2023-06-14T14:56:08;7.87;;;3.58;;
72205;SDS011;60111;48.286;7.812;2023-06-14T14:58:40;9.08;;;3.40;;
72205;SDS011;60111;48.286;7.812;2023-06-14T15:01:13;6.15;;;3.30;;
72205;SDS011;60111;48.286;7.812;2023-06-14T15:03:45;6.37;;;3.60;;
72205;SDS011;60111;48.286;7.812;2023-06-14T15:06:18;6.60;;;3.67;;
72205;SDS011;60111;48.286;7.812;2023-06-14T15:08:51;5.83;;;3.52;;
72205;SDS011;60111;48.286;7.812;2023-06-14T15:11:24;6.42;;;3.52;;
72205;SDS011;60111;48.286;7.812;2023-06-14T15:13:57;6.80;;;3.47;;
72205;SDS011;60111;48.286;7.812;2023-06-14T15:16:30;6.05;;;3.25;;
72205;SDS011;60111;48.286;7.812;2023-06-14T15:19:03;8.85;;;3.42;;
72205;SDS011;60111;48.286;7.812;2023-06-14T15:21:35;6.65;;;3.45;;
72205;SDS011;60111;48.286;7.812;2023-06-14T15:24:08;3.42;;;3.10;;
72205;SDS011;60111;48.286;7.812;2023-06-14T15:26:40;8.20;;;3.20;;
72205;SDS011;60111;48.286;7.812;2023-06-14T15:29:13;7.20;;;3.40;;
72205;SDS011;60111;48.286;7.812;2023-06-14T15:31:45;8.23;;;3.70;;
72205;SDS011;60111;48.286;7.812;2023-06-14T15:34:19;4.43;;;3.40;;
72205;SDS011;60111;48.286;7.812;2023-06-14T15:36:52;4.42;;;3.37;;
72205;SDS011;60111;48.286;7.812;2023-06-14T15:39:26;6.97;;;3.73;;
72205;SDS011;60111;48.286;7.812;2023-06-14T15:42:00;8.50;;;3.58;;
72205;SDS011;60111;48.286;7.812;2023-06-14T15:44:32;6.30;;;3.53;;
72205;SDS011;60111;48.286;7.812;2023-06-14T15:47:06;7.03;;;3.50;;
72205;SDS011;60111;48.286;7.812;2023-06-14T15:49:39;7.40;;;3.77;;
72205;SDS011;60111;48.286;7.812;2023-06-14T15:52:12;5.75;;;3.20;;
72205;SDS011;60111;48.286;7.812;2023-06-14T15:54:45;12.43;;;3.57;;
72205;SDS011;60111;48.286;7.812;2023-06-14T15:57:17;5.25;;;3.35;;
72205;SDS011;60111;48.286;7.812;2023-06-14T15:59:50;4.28;;;3.00;;